Time;durP1;ratioP1;P1;durP2;ratioP2;P2;SDS_P1;SDS_P2;PMS_P1;PMS_P2;Temp;Humidity;BMP_temperature;BMP_pressure;BME280_temperature;BME280_humidity;BME280_pressure;Samples;Min_cycle;Max_cycle;Signal;HPM_P1;HPM_P2
2022/01/29 00:01:41;;;;;;;29.25;14.52;;;5.30;99.90;;;;;;5053535;28;20064;-49
2022/01/29 00:04:07;;;;;;;23.58;14.23;;;5.30;99.90;;;;;;5052520;28;20013;-52
2022/01/29 00:06:32;;;;;;;23.95;14.25;;;5.30;99.90;;;;;;5051589;28;20424;-41
2022/01/29 00:08:58;;;;;;;23.45;14.52;;;5.30;99.90;;;;;;5051315;28;20388;-43
2022/01/29 00:11:29;;;;;;;28.63;14.75;;;5.20;99.90;;;;;;5052798;28;20017;-46
2022/01/29 00:13:55;;;;;;;28.95;14.40;;;5.30;99.90;;;;;;5052619;28;20017;-43
2022/01/29 00:16:20;;;;;;;19.52;12.77;;;5.20;99.90;;;;;;5052865;28;20465;-47
2022/01/29 00:18:46;;;;;;;27.42;14.52;;;5.20;99.90;;;;;;5052773;28;20025;-48
2022/01/29 00:21:11;;;;;;;24.13;13.10;;;5.20;99.90;;;;;;5053007;28;20031;-46
2022/01/29 00:23:37;;;;;;;22.10;13.57;;;5.30;99.90;;;;;;5052793;28;20045;-47
2022/01/29 00:26:02;;;;;;;25.05;13.93;;;5.30;99.90;;;;;;5052712;28;20078;-47
2022/01/29 00:28:29;;;;;;;24.80;13.32;;;5.30;99.90;;;;;;5052733;28;20488;-49
2022/01/29 00:30:54;;;;;;;28.00;15.27;;;5.30;99.90;;;;;;5052430;28;20528;-47
2022/01/29 00:33:20;;;;;;;23.55;13.43;;;5.40;99.90;;;;;;5052492;28;20056;-43
2022/01/29 00:35:45;;;;;;;24.75;13.32;;;5.30;99.90;;;;;;5052589;28;20033;-47
2022/01/29 00:38:11;;;;;;;29.67;14.07;;;5.30;99.90;;;;;;5051985;28;20099;-51
2022/01/29 00:40:37;;;;;;;27.48;14.10;;;5.30;99.90;;;;;;5052641;28;20484;-53
2022/01/29 00:43:04;;;;;;;25.40;13.27;;;5.40;99.90;;;;;;5052257;28;20032;-46
2022/01/29 00:45:31;;;;;;;24.67;14.63;;;5.40;99.90;;;;;;5052559;28;20048;-41
2022/01/29 00:47:57;;;;;;;22.80;12.90;;;5.40;99.90;;;;;;5052428;28;20032;-44
2022/01/29 00:50:22;;;;;;;28.30;12.35;;;5.50;99.90;;;;;;5052220;28;20032;-49
2022/01/29 00:52:48;;;;;;;35.75;13.30;;;5.50;99.90;;;;;;5052070;28;20025;-52
2022/01/29 00:55:14;;;;;;;19.77;12.18;;;5.50;99.90;;;;;;5071488;23;20041;-49
2022/01/29 00:57:40;;;;;;;25.40;12.98;;;5.40;99.90;;;;;;5052013;28;20028;-48
2022/01/29 01:00:12;;;;;;;20.98;12.80;;;5.40;99.90;;;;;;5051896;28;20040;-49
2022/01/29 01:02:38;;;;;;;24.42;13.18;;;5.40;99.90;;;;;;5052042;28;20028;-48
2022/01/29 01:05:05;;;;;;;22.42;12.73;;;5.40;99.90;;;;;;5050270;28;20475;-48
2022/01/29 01:07:31;;;;;;;22.67;13.07;;;5.50;99.90;;;;;;5052002;28;20059;-45
2022/01/29 01:09:56;;;;;;;21.27;13.85;;;5.40;99.90;;;;;;5051763;28;20060;-44
2022/01/29 01:12:22;;;;;;;23.35;13.07;;;5.40;99.90;;;;;;5051778;28;20108;-44
2022/01/29 01:14:48;;;;;;;17.70;11.75;;;5.40;99.90;;;;;;5050431;28;20341;-45
2022/01/29 01:17:13;;;;;;;19.70;11.48;;;5.40;99.90;;;;;;5051889;28;20032;-46
2022/01/29 01:19:39;;;;;;;25.95;13.65;;;5.40;99.90;;;;;;5051655;28;20021;-45
2022/01/29 01:22:04;;;;;;;28.00;12.35;;;5.40;99.90;;;;;;5050339;28;20036;-44
2022/01/29 01:24:30;;;;;;;26.38;12.20;;;5.30;99.90;;;;;;5051254;28;20206;-47
2022/01/29 01:26:56;;;;;;;20.08;11.82;;;5.30;99.90;;;;;;5051804;28;20052;-46
2022/01/29 01:29:22;;;;;;;22.15;12.10;;;5.40;99.90;;;;;;5051535;28;20025;-44
2022/01/29 01:31:47;;;;;;;20.33;12.32;;;5.40;99.90;;;;;;5051466;28;20071;-49
2022/01/29 01:34:14;;;;;;;18.58;12.20;;;5.40;99.90;;;;;;5051134;28;20473;-43
2022/01/29 01:36:46;;;;;;;22.15;12.52;;;5.40;99.90;;;;;;5050975;28;20021;-47
2022/01/29 01:39:15;;;;;;;25.50;13.00;;;5.40;99.90;;;;;;5050273;28;20025;-46
2022/01/29 01:41:48;;;;;;;20.45;12.25;;;5.40;99.90;;;;;;5051478;28;20017;-46
2022/01/29 01:44:14;;;;;;;23.63;13.15;;;5.30;99.90;;;;;;5051228;28;20025;-49
2022/01/29 01:46:39;;;;;;;25.35;14.20;;;5.30;99.90;;;;;;5051301;28;20040;-45
2022/01/29 01:49:05;;;;;;;26.85;15.00;;;5.30;99.90;;;;;;5051228;28;20499;-45
2022/01/29 01:51:31;;;;;;;25.70;12.98;;;5.30;99.90;;;;;;5051186;28;20024;-44
2022/01/29 01:53:57;;;;;;;25.83;13.45;;;5.30;99.90;;;;;;5050969;28;20480;-51
2022/01/29 01:56:23;;;;;;;26.50;13.18;;;5.30;99.90;;;;;;5049832;28;20522;-44
2022/01/29 01:58:48;;;;;;;49.30;15.48;;;5.30;99.90;;;;;;5051154;28;20037;-44
2022/01/29 02:01:14;;;;;;;29.77;16.63;;;5.30;99.90;;;;;;5051027;28;20489;-47
2022/01/29 02:03:40;;;;;;;25.80;13.27;;;5.20;99.90;;;;;;5051061;28;20448;-45
2022/01/29 02:06:05;;;;;;;25.35;14.23;;;5.20;99.90;;;;;;5051112;28;20068;-45
2022/01/29 02:08:31;;;;;;;27.27;14.85;;;5.20;99.90;;;;;;5051095;28;20154;-48
2022/01/29 02:11:06;;;;;;;25.40;13.98;;;5.10;99.90;;;;;;5051083;28;20450;-47
2022/01/29 02:13:32;;;;;;;22.75;14.73;;;5.10;99.90;;;;;;5050855;28;20052;-48
2022/01/29 02:15:58;;;;;;;24.70;12.73;;;5.10;99.90;;;;;;5052935;28;20112;-48
2022/01/29 02:18:24;;;;;;;28.27;13.45;;;5.10;99.90;;;;;;5055172;28;20060;-47
2022/01/29 02:20:50;;;;;;;29.98;15.45;;;5.20;99.90;;;;;;5054830;28;20397;-48
2022/01/29 02:23:17;;;;;;;27.23;15.30;;;5.20;99.90;;;;;;5054671;28;20100;-46
2022/01/29 02:25:44;;;;;;;30.92;13.45;;;5.20;99.90;;;;;;5054892;28;20021;-43
2022/01/29 02:28:24;;;;;;;22.48;12.40;;;5.10;99.90;;;;;;5054921;28;20395;-45
2022/01/29 02:31:03;;;;;;;29.13;15.18;;;5.10;99.90;;;;;;5054710;28;20032;-44
2022/01/29 02:33:31;;;;;;;28.08;13.95;;;5.10;99.90;;;;;;5054464;28;20485;-44
2022/01/29 02:35:57;;;;;;;23.90;13.15;;;5.00;99.90;;;;;;5053173;28;20430;-45
2022/01/29 02:38:24;;;;;;;27.63;15.82;;;4.90;99.90;;;;;;5054008;28;20480;-45
2022/01/29 02:40:55;;;;;;;26.75;14.23;;;5.00;99.90;;;;;;5054497;28;20112;-44
2022/01/29 02:43:29;;;;;;;29.67;14.85;;;5.00;99.90;;;;;;5054364;28;20075;-45
2022/01/29 02:45:56;;;;;;;23.58;13.25;;;5.00;99.90;;;;;;5054475;28;20471;-46
2022/01/29 02:48:23;;;;;;;27.40;15.93;;;4.90;99.90;;;;;;5054434;28;20100;-44
2022/01/29 02:50:49;;;;;;;25.10;14.07;;;4.90;99.90;;;;;;5054455;28;20024;-48
2022/01/29 02:53:15;;;;;;;25.17;14.68;;;4.90;99.90;;;;;;5052639;28;20028;-50
2022/01/29 02:55:41;;;;;;;22.38;13.52;;;4.90;99.90;;;;;;5052817;28;20029;-45
2022/01/29 02:58:07;;;;;;;23.90;14.63;;;4.90;99.90;;;;;;5054279;28;20455;-43
2022/01/29 03:00:33;;;;;;;30.75;14.20;;;4.90;99.90;;;;;;5052971;28;20025;-44
2022/01/29 03:02:59;;;;;;;24.02;13.75;;;4.90;99.90;;;;;;5053875;28;20029;-44
2022/01/29 03:05:25;;;;;;;26.98;14.93;;;4.90;99.90;;;;;;5054022;28;20025;-46
2022/01/29 03:07:50;;;;;;;25.83;13.90;;;4.90;99.90;;;;;;5055111;28;20028;-45
2022/01/29 03:10:17;;;;;;;26.88;15.32;;;4.90;99.90;;;;;;5055192;28;20104;-44
2022/01/29 03:12:42;;;;;;;29.60;14.07;;;4.90;99.90;;;;;;5055376;28;20071;-46
2022/01/29 03:15:09;;;;;;;22.55;12.68;;;4.90;99.90;;;;;;5052537;28;20052;-47
2022/01/29 03:17:35;;;;;;;23.83;13.55;;;4.90;99.90;;;;;;5053964;28;20123;-48
2022/01/29 03:20:01;;;;;;;25.20;14.55;;;4.90;99.90;;;;;;5036075;28;20461;-46
2022/01/29 03:22:27;;;;;;;23.48;12.95;;;4.90;99.90;;;;;;5053891;28;20066;-45
2022/01/29 03:24:52;;;;;;;25.25;14.05;;;4.90;99.90;;;;;;5053549;28;20499;-50
2022/01/29 03:27:18;;;;;;;27.73;13.07;;;4.90;99.90;;;;;;5053630;28;20096;-44
2022/01/29 03:29:43;;;;;;;24.25;13.55;;;4.90;99.90;;;;;;5053667;28;20029;-46
2022/01/29 03:32:09;;;;;;;23.23;12.60;;;5.00;99.90;;;;;;5053702;28;20420;-44
2022/01/29 03:34:35;;;;;;;25.67;14.48;;;5.00;99.90;;;;;;5053249;28;20056;-44
2022/01/29 03:37:01;;;;;;;24.83;13.30;;;5.00;99.90;;;;;;5053132;28;20032;-49
2022/01/29 03:39:28;;;;;;;24.92;12.07;;;5.00;99.90;;;;;;5053300;28;20021;-47
2022/01/29 03:41:59;;;;;;;18.67;11.70;;;5.00;99.90;;;;;;5053592;28;20017;-45
2022/01/29 03:44:25;;;;;;;25.50;11.93;;;5.00;99.90;;;;;;5052001;28;20541;-43
2022/01/29 03:46:50;;;;;;;23.40;12.82;;;5.00;99.90;;;;;;5053669;28;20064;-45
2022/01/29 03:49:16;;;;;;;21.83;12.30;;;5.00;99.90;;;;;;5054029;28;20033;-47
2022/01/29 03:51:41;;;;;;;23.90;12.57;;;5.00;99.90;;;;;;5053429;28;20086;-44
2022/01/29 03:54:07;;;;;;;23.85;13.95;;;5.00;99.90;;;;;;5052869;28;20504;-46
2022/01/29 03:56:32;;;;;;;22.70;13.23;;;5.00;99.90;;;;;;5051945;28;20032;-46
2022/01/29 03:58:58;;;;;;;20.95;11.52;;;5.00;99.90;;;;;;5053112;28;20116;-51
2022/01/29 04:01:23;;;;;;;22.00;12.00;;;5.00;99.90;;;;;;5053211;28;20408;-46
2022/01/29 04:03:49;;;;;;;23.23;12.60;;;5.10;99.90;;;;;;5052879;28;20022;-48
2022/01/29 04:06:15;;;;;;;23.48;12.18;;;5.10;99.90;;;;;;5053207;28;20104;-51
2022/01/29 04:08:42;;;;;;;25.63;12.25;;;5.00;99.90;;;;;;5053230;28;20021;-47
2022/01/29 04:11:10;;;;;;;20.05;11.77;;;5.00;99.90;;;;;;5052964;28;20051;-46
2022/01/29 04:13:37;;;;;;;19.38;11.80;;;5.00;99.90;;;;;;5052564;28;20017;-45
2022/01/29 04:16:03;;;;;;;24.10;12.77;;;5.00;99.90;;;;;;5053103;28;20017;-44
2022/01/29 04:18:29;;;;;;;21.77;11.82;;;5.00;99.90;;;;;;5051762;28;20025;-44
2022/01/29 04:20:54;;;;;;;21.58;11.88;;;5.00;99.90;;;;;;5053046;28;20029;-44
2022/01/29 04:23:20;;;;;;;23.98;12.25;;;5.10;99.90;;;;;;5052816;28;20029;-45
2022/01/29 04:25:45;;;;;;;22.83;12.98;;;5.00;99.90;;;;;;5053188;28;20029;-45
2022/01/29 04:28:13;;;;;;;24.08;11.98;;;5.00;99.90;;;;;;5051311;28;20033;-44
2022/01/29 04:30:49;;;;;;;22.90;11.90;;;5.00;99.90;;;;;;5052579;28;20162;-43
2022/01/29 04:33:28;;;;;;;20.73;11.85;;;5.00;99.90;;;;;;5052404;28;20032;-47
2022/01/29 04:35:53;;;;;;;20.83;12.77;;;5.00;99.90;;;;;;5052530;28;20029;-46
2022/01/29 04:38:19;;;;;;;24.70;13.98;;;5.00;99.90;;;;;;5051702;28;20041;-49
2022/01/29 04:40:44;;;;;;;19.42;10.77;;;5.00;99.90;;;;;;5052438;28;20159;-47
2022/01/29 04:43:10;;;;;;;26.25;13.20;;;5.00;99.90;;;;;;5051158;28;20032;-45
2022/01/29 04:45:35;;;;;;;21.08;12.48;;;5.00;99.90;;;;;;5052510;28;20504;-44
2022/01/29 04:48:01;;;;;;;20.65;11.88;;;4.90;99.90;;;;;;5053598;28;20112;-44
2022/01/29 04:50:27;;;;;;;18.52;11.90;;;5.00;99.90;;;;;;5052502;28;20120;-44
2022/01/29 04:52:52;;;;;;;21.67;13.07;;;4.90;99.90;;;;;;5050593;28;20032;-44
2022/01/29 04:55:18;;;;;;;22.88;12.07;;;4.90;99.90;;;;;;5050610;28;20029;-45
2022/01/29 04:57:43;;;;;;;26.00;12.48;;;5.00;99.90;;;;;;5051957;28;20511;-45
2022/01/29 05:00:12;;;;;;;21.67;12.50;;;4.90;99.90;;;;;;5051769;28;20063;-46
2022/01/29 05:02:38;;;;;;;25.48;12.23;;;5.00;99.90;;;;;;5051805;28;20438;-45
2022/01/29 05:05:05;;;;;;;20.45;12.82;;;4.90;99.90;;;;;;5050427;28;20035;-49
2022/01/29 05:07:31;;;;;;;25.38;12.75;;;4.90;99.90;;;;;;5051759;28;20029;-44
2022/01/29 05:09:57;;;;;;;20.40;11.82;;;4.90;99.90;;;;;;5051772;28;20488;-44
2022/01/29 05:12:28;;;;;;;23.75;12.98;;;4.90;99.90;;;;;;5051816;28;20021;-44
2022/01/29 05:15:09;;;;;;;23.73;13.32;;;4.90;99.90;;;;;;5051700;28;20042;-48
2022/01/29 05:28:32;;;;;;;23.35;11.88;;;4.80;99.90;;;;;;5051662;28;20036;-47
2022/01/29 05:30:57;;;;;;;20.42;12.55;;;4.90;99.90;;;;;;5051558;28;20459;-44
2022/01/29 05:33:23;;;;;;;22.95;11.77;;;4.80;99.90;;;;;;5051650;28;20100;-47
2022/01/29 05:35:48;;;;;;;17.77;10.88;;;4.80;99.90;;;;;;5051520;28;20032;-46
2022/01/29 05:38:14;;;;;;;18.48;11.65;;;4.80;99.90;;;;;;5051059;28;20120;-41
2022/01/29 05:40:39;;;;;;;18.13;10.85;;;4.80;99.90;;;;;;5051711;28;20484;-45
2022/01/29 05:43:05;;;;;;;22.05;11.65;;;4.80;99.90;;;;;;5051177;28;20084;-46
2022/01/29 05:45:30;;;;;;;23.08;11.80;;;4.80;99.90;;;;;;5051371;28;20053;-46
2022/01/29 05:47:56;;;;;;;17.35;10.27;;;4.80;99.90;;;;;;5051420;28;20024;-45
2022/01/29 05:50:21;;;;;;;20.40;10.95;;;4.80;99.90;;;;;;5051932;28;20044;-47
2022/01/29 05:52:47;;;;;;;15.05;10.05;;;4.80;99.90;;;;;;5055385;28;20032;-44
2022/01/29 05:55:12;;;;;;;19.35;10.93;;;4.80;99.90;;;;;;5055148;28;20033;-43
2022/01/29 05:57:38;;;;;;;20.70;9.98;;;4.90;99.90;;;;;;5054089;28;20029;-44
2022/01/29 06:00:05;;;;;;;15.95;9.63;;;4.80;99.90;;;;;;5055341;28;20178;-48
2022/01/29 06:02:30;;;;;;;25.38;12.38;;;4.90;99.90;;;;;;5055309;28;20029;-47
2022/01/29 06:04:56;;;;;;;19.58;11.05;;;4.80;99.90;;;;;;5054968;28;20388;-47
2022/01/29 06:07:21;;;;;;;19.13;12.05;;;4.80;99.90;;;;;;5055224;28;20067;-44
2022/01/29 06:09:48;;;;;;;17.10;10.20;;;4.80;99.90;;;;;;5055150;28;20496;-47
2022/01/29 06:12:14;;;;;;;18.83;11.30;;;4.80;99.90;;;;;;5055187;28;20443;-46
2022/01/29 06:14:39;;;;;;;19.23;11.30;;;4.80;99.90;;;;;;5054711;28;20029;-44
2022/01/29 06:17:05;;;;;;;18.38;10.00;;;4.80;99.90;;;;;;5055118;28;20087;-46
2022/01/29 06:19:30;;;;;;;15.82;10.25;;;4.80;99.90;;;;;;5054816;28;20090;-49
2022/01/29 06:21:56;;;;;;;17.95;11.15;;;4.80;99.90;;;;;;5054912;28;20025;-46
2022/01/29 06:24:22;;;;;;;18.73;11.15;;;4.90;99.90;;;;;;5054635;28;20036;-46
2022/01/29 06:26:48;;;;;;;16.23;10.38;;;4.90;99.90;;;;;;5054832;28;20013;-45
2022/01/29 06:29:13;;;;;;;20.25;12.18;;;4.90;99.90;;;;;;5054849;28;20477;-46
2022/01/29 06:31:39;;;;;;;22.70;11.43;;;4.90;99.90;;;;;;5054706;28;20029;-45
2022/01/29 06:34:05;;;;;;;17.95;11.52;;;4.90;99.90;;;;;;5054422;28;20025;-46
2022/01/29 06:36:30;;;;;;;20.65;10.98;;;5.00;99.90;;;;;;5054419;28;20100;-47
2022/01/29 06:38:56;;;;;;;20.25;11.85;;;4.90;99.90;;;;;;5053173;28;20373;-47
2022/01/29 06:41:21;;;;;;;20.13;11.90;;;4.90;99.90;;;;;;5054462;28;20021;-44
2022/01/29 06:43:47;;;;;;;21.10;12.02;;;4.90;99.90;;;;;;5054400;28;20590;-46
2022/01/29 06:46:12;;;;;;;21.83;11.57;;;4.90;99.90;;;;;;5054522;28;20469;-44
2022/01/29 06:48:38;;;;;;;19.38;11.85;;;4.90;99.90;;;;;;5054351;28;20053;-48
2022/01/29 06:51:03;;;;;;;20.73;11.57;;;4.90;99.90;;;;;;5054545;28;20116;-46
2022/01/29 06:53:29;;;;;;;17.33;11.63;;;4.80;99.90;;;;;;5052806;28;20395;-46
2022/01/29 06:55:54;;;;;;;25.88;13.40;;;4.80;99.90;;;;;;5081107;22;20048;-43
2022/01/29 06:58:20;;;;;;;19.13;11.85;;;4.80;99.90;;;;;;5053847;28;20484;-45
2022/01/29 07:00:45;;;;;;;20.35;11.55;;;4.80;99.90;;;;;;5054312;28;20095;-45
2022/01/29 07:03:11;;;;;;;18.27;11.52;;;4.80;99.90;;;;;;5053896;28;20029;-41
2022/01/29 07:05:36;;;;;;;21.20;11.07;;;4.80;99.90;;;;;;5052965;28;20021;-45
2022/01/29 07:08:04;;;;;;;23.63;10.77;;;4.90;99.90;;;;;;5053494;28;20021;-45
2022/01/29 07:10:30;;;;;;;15.57;10.25;;;4.90;99.90;;;;;;5054457;28;20033;-40
2022/01/29 07:12:55;;;;;;;17.80;10.88;;;4.90;99.90;;;;;;5052633;28;20518;-46
2022/01/29 07:15:21;;;;;;;16.30;10.52;;;4.90;99.90;;;;;;5054348;28;20021;-45
2022/01/29 07:17:46;;;;;;;16.45;10.25;;;4.90;99.90;;;;;;5054224;28;20041;-46
2022/01/29 07:20:12;;;;;;;16.27;10.65;;;4.80;99.90;;;;;;5054020;28;20028;-45
2022/01/29 07:22:39;;;;;;;16.13;9.68;;;4.80;99.90;;;;;;5052494;28;20022;-46
2022/01/29 07:25:06;;;;;;;15.13;8.80;;;4.80;99.90;;;;;;5054431;28;20154;-41
2022/01/29 07:27:31;;;;;;;13.25;8.65;;;4.80;99.90;;;;;;5054400;28;20029;-38
2022/01/29 07:29:57;;;;;;;13.93;9.60;;;4.80;99.90;;;;;;5052827;28;20073;-44
2022/01/29 07:32:22;;;;;;;18.15;9.80;;;4.80;99.90;;;;;;5052229;28;20046;-45
2022/01/29 07:34:48;;;;;;;14.60;10.07;;;4.80;99.90;;;;;;5036078;28;20138;-44
2022/01/29 07:37:14;;;;;;;12.77;8.57;;;4.80;99.90;;;;;;5037657;28;20481;-48
2022/01/29 07:39:39;;;;;;;18.33;9.60;;;4.80;99.90;;;;;;5052286;28;20119;-49
2022/01/29 07:42:05;;;;;;;16.02;9.60;;;4.80;99.90;;;;;;5052714;28;20104;-46
2022/01/29 07:44:30;;;;;;;22.35;9.70;;;4.80;99.90;;;;;;5049853;28;20026;-46
2022/01/29 07:46:56;;;;;;;15.85;8.75;;;4.80;99.90;;;;;;5041894;28;20052;-39
2022/01/29 07:49:22;;;;;;;16.30;9.35;;;4.90;99.90;;;;;;5048300;28;20056;-48
2022/01/29 07:51:48;;;;;;;14.95;8.48;;;4.90;99.90;;;;;;5035623;28;20392;-44
2022/01/29 07:54:13;;;;;;;15.52;8.98;;;4.80;99.90;;;;;;5051057;28;20024;-44
2022/01/29 07:56:39;;;;;;;13.80;8.55;;;4.80;99.90;;;;;;5045818;28;20393;-46
2022/01/29 07:59:05;;;;;;;14.13;7.55;;;4.80;99.90;;;;;;5033922;28;20036;-38
2022/01/29 08:01:31;;;;;;;13.10;7.72;;;4.80;99.90;;;;;;5048687;28;20021;-48
2022/01/29 08:03:56;;;;;;;13.77;7.90;;;4.90;99.90;;;;;;5053508;28;20017;-46
2022/01/29 08:06:23;;;;;;;10.43;7.40;;;4.80;99.90;;;;;;5052540;28;20036;-44
2022/01/29 08:08:52;;;;;;;13.75;7.38;;;4.90;99.90;;;;;;5047947;28;20328;-45
2022/01/29 08:11:18;;;;;;;11.15;7.38;;;4.90;99.90;;;;;;5050503;28;20551;-45
2022/01/29 08:13:46;;;;;;;13.30;8.25;;;5.00;99.90;;;;;;5049065;28;20408;-46
2022/01/29 08:16:13;;;;;;;13.93;7.47;;;5.00;99.90;;;;;;5053018;28;20017;-46
2022/01/29 08:18:39;;;;;;;12.80;8.50;;;5.00;99.90;;;;;;5053160;28;20396;-47
2022/01/29 08:21:04;;;;;;;9.93;7.43;;;5.00;99.90;;;;;;5047266;28;20033;-49
2022/01/29 08:23:30;;;;;;;11.73;7.07;;;5.10;99.90;;;;;;5035422;28;20017;-46
2022/01/29 08:25:55;;;;;;;9.85;6.75;;;5.10;99.90;;;;;;5052988;28;20503;-51
2022/01/29 08:28:23;;;;;;;9.93;6.95;;;5.10;99.90;;;;;;5052943;28;20500;-45
2022/01/29 08:30:48;;;;;;;9.50;6.53;;;5.10;99.90;;;;;;5054103;28;20037;-45
2022/01/29 08:33:18;;;;;;;11.27;7.35;;;5.10;99.90;;;;;;5052735;28;20028;-48
2022/01/29 08:35:44;;;;;;;10.30;6.78;;;5.00;99.90;;;;;;5052708;28;20086;-47
2022/01/29 08:38:10;;;;;;;9.25;6.28;;;5.00;99.90;;;;;;5052946;28;20059;-50
2022/01/29 08:40:35;;;;;;;9.38;5.78;;;5.10;99.90;;;;;;5052584;28;20052;-47
2022/01/29 08:43:01;;;;;;;7.47;5.25;;;5.10;99.90;;;;;;5052889;28;20025;-46
2022/01/29 08:45:26;;;;;;;7.82;5.53;;;5.10;99.90;;;;;;5052532;28;20070;-46
2022/01/29 08:47:52;;;;;;;8.27;5.80;;;5.20;99.90;;;;;;5052939;28;20048;-47
2022/01/29 08:50:18;;;;;;;9.43;5.47;;;5.20;99.90;;;;;;5052414;28;20082;-47
2022/01/29 08:52:43;;;;;;;7.70;5.70;;;5.20;99.90;;;;;;5052094;28;20476;-42
2022/01/29 08:55:09;;;;;;;7.60;5.00;;;5.20;99.90;;;;;;5052297;28;20090;-49
2022/01/29 08:57:36;;;;;;;6.05;4.72;;;5.20;99.90;;;;;;5052357;28;20035;-46
2022/01/29 09:00:04;;;;;;;9.05;5.22;;;5.30;99.90;;;;;;5052249;28;20029;-47
2022/01/29 09:02:30;;;;;;;6.47;4.75;;;5.20;99.90;;;;;;5052136;28;20045;-47
2022/01/29 09:04:58;;;;;;;6.18;4.82;;;5.30;99.90;;;;;;5050635;28;20017;-47
2022/01/29 09:07:26;;;;;;;6.57;4.63;;;5.30;99.90;;;;;;5052163;28;20021;-50
2022/01/29 09:09:52;;;;;;;6.20;4.50;;;5.40;99.90;;;;;;5051890;28;20025;-45
2022/01/29 09:12:17;;;;;;;3.90;3.38;;;5.50;99.90;;;;;;5051016;28;20082;-43
2022/01/29 09:14:43;;;;;;;4.60;3.88;;;5.60;99.90;;;;;;5051887;28;20033;-45
2022/01/29 09:17:09;;;;;;;4.18;3.60;;;5.70;99.90;;;;;;5051794;28;20488;-48
2022/01/29 09:19:34;;;;;;;3.67;3.30;;;5.70;99.90;;;;;;5050513;28;20037;-47
2022/01/29 09:22:00;;;;;;;4.88;3.65;;;5.70;99.90;;;;;;5050653;28;20024;-47
2022/01/29 09:24:26;;;;;;;3.92;3.17;;;5.70;99.90;;;;;;5051649;28;20492;-45
2022/01/29 09:26:52;;;;;;;4.75;3.58;;;5.70;99.90;;;;;;5051887;28;20502;-47
2022/01/29 09:29:17;;;;;;;3.67;3.03;;;5.70;99.90;;;;;;5050742;28;20025;-43
2022/01/29 09:31:43;;;;;;;4.82;3.47;;;5.70;99.90;;;;;;5049847;28;20449;-43
2022/01/29 09:34:08;;;;;;;3.88;3.13;;;5.70;99.90;;;;;;5048999;28;20027;-48
2022/01/29 09:36:34;;;;;;;6.30;3.45;;;5.70;99.90;;;;;;5051369;28;20025;-42
2022/01/29 09:39:00;;;;;;;4.05;3.58;;;5.60;99.90;;;;;;5051743;28;20104;-42
2022/01/29 09:41:27;;;;;;;2.90;2.63;;;5.50;99.90;;;;;;5051955;28;20021;-49
2022/01/29 09:43:54;;;;;;;4.38;3.15;;;5.50;99.90;;;;;;5052414;28;20027;-45
2022/01/29 09:46:20;;;;;;;3.15;2.88;;;5.40;99.90;;;;;;5051570;28;20021;-46
2022/01/29 09:48:46;;;;;;;3.03;2.72;;;5.40;99.90;;;;;;5051559;28;20021;-43
2022/01/29 09:51:13;;;;;;;5.38;4.00;;;5.40;99.90;;;;;;5051363;28;20032;-46
2022/01/29 09:53:43;;;;;;;4.05;3.25;;;5.50;99.90;;;;;;5051382;28;20498;-46
2022/01/29 09:56:09;;;;;;;3.53;3.05;;;5.50;99.90;;;;;;5051414;28;20048;-45
2022/01/29 09:58:35;;;;;;;2.58;2.38;;;5.50;99.90;;;;;;5051788;28;20059;-40
2022/01/29 10:01:01;;;;;;;3.20;2.58;;;5.50;99.90;;;;;;5051193;28;20040;-40
2022/01/29 10:03:27;;;;;;;7.25;3.70;;;5.50;99.90;;;;;;5051282;28;20025;-46
2022/01/29 10:05:54;;;;;;;3.20;2.90;;;5.40;99.90;;;;;;5050172;28;20056;-45
2022/01/29 10:08:21;;;;;;;3.75;2.67;;;5.50;99.90;;;;;;5050357;28;20120;-44
2022/01/29 10:10:52;;;;;;;2.40;2.20;;;5.50;99.90;;;;;;5051303;28;20029;-46
2022/01/29 10:13:34;;;;;;;2.30;1.92;;;5.40;99.90;;;;;;5051184;28;20021;-45
2022/01/29 10:16:19;;;;;;;4.35;2.60;;;5.40;99.90;;;;;;5050146;28;20412;-46
2022/01/29 10:19:00;;;;;;;2.50;2.30;;;5.40;99.90;;;;;;5051624;28;20071;-43
2022/01/29 10:21:29;;;;;;;2.60;2.40;;;5.40;99.90;;;;;;5049902;28;20056;-46
2022/01/29 10:24:03;;;;;;;2.45;2.25;;;5.40;99.90;;;;;;5051070;28;20043;-44
2022/01/29 10:26:33;;;;;;;2.40;2.20;;;5.40;99.90;;;;;;5051275;28;20022;-45
2022/01/29 10:28:59;;;;;;;2.47;2.28;;;5.40;99.90;;;;;;5050806;28;20025;-46
2022/01/29 10:31:24;;;;;;;2.53;2.15;;;5.50;99.90;;;;;;5050701;28;20492;-50
2022/01/29 10:33:50;;;;;;;2.33;2.08;;;5.50;99.90;;;;;;5045360;28;20032;-44
2022/01/29 10:36:20;;;;;;;2.38;2.17;;;5.50;99.90;;;;;;5051368;28;20013;-45
2022/01/29 10:38:48;;;;;;;2.00;1.90;;;5.50;99.90;;;;;;5053635;28;20029;-45
2022/01/29 10:41:31;;;;;;;2.17;1.85;;;5.50;99.90;;;;;;5053627;28;20029;-48
2022/01/29 10:44:13;;;;;;;1.70;1.60;;;5.60;99.90;;;;;;5043435;28;20099;-45
2022/01/29 10:46:48;;;;;;;1.92;1.80;;;5.60;99.90;;;;;;5045685;28;20382;-45
2022/01/29 10:49:19;;;;;;;2.47;1.80;;;5.60;99.90;;;;;;5035107;28;20378;-45
2022/01/29 10:52:04;;;;;;;2.28;1.92;;;5.70;99.90;;;;;;5050439;28;20021;-44
2022/01/29 10:54:35;;;;;;;1.90;1.80;;;5.70;99.90;;;;;;5054887;28;20423;-41
2022/01/29 10:57:09;;;;;;;1.98;1.83;;;5.70;99.90;;;;;;5053890;28;20083;-44
2022/01/29 10:59:47;;;;;;;1.80;1.70;;;5.80;99.90;;;;;;5048507;28;20488;-47
2022/01/29 11:02:13;;;;;;;1.95;1.75;;;5.70;99.90;;;;;;5034407;28;20357;-45
2022/01/29 11:04:41;;;;;;;1.55;1.48;;;5.70;99.90;;;;;;5043102;28;20032;-46
2022/01/29 11:07:28;;;;;;;2.40;2.15;;;5.70;99.90;;;;;;5032961;28;20029;-42
2022/01/29 11:09:54;;;;;;;4.38;2.65;;;5.70;99.90;;;;;;5034128;28;20370;-41
2022/01/29 11:12:22;;;;;;;3.10;2.80;;;5.70;99.90;;;;;;5032853;28;20029;-48
2022/01/29 11:14:49;;;;;;;2.63;2.08;;;5.70;99.90;;;;;;5032749;28;20025;-46
2022/01/29 11:17:16;;;;;;;3.13;2.20;;;5.70;99.90;;;;;;5049008;28;20028;-46
2022/01/29 11:19:41;;;;;;;2.42;1.80;;;5.70;99.90;;;;;;5053809;28;20436;-48
2022/01/29 11:22:09;;;;;;;2.22;2.05;;;5.80;99.90;;;;;;5053822;28;20052;-48
2022/01/29 11:24:37;;;;;;;2.38;2.17;;;5.80;99.90;;;;;;5053552;28;20025;-45
2022/01/29 11:27:22;;;;;;;3.85;2.17;;;5.80;99.90;;;;;;5053881;28;20021;-49
2022/01/29 11:30:03;;;;;;;2.17;1.98;;;5.80;99.90;;;;;;5052582;28;20029;-46
2022/01/29 11:32:32;;;;;;;2.00;1.90;;;5.90;99.90;;;;;;5053783;28;20389;-47
2022/01/29 11:35:26;;;;;;;2.47;2.28;;;5.80;99.90;;;;;;5053221;28;20108;-44
2022/01/29 11:38:04;;;;;;;2.67;2.33;;;5.80;99.90;;;;;;5045299;28;20025;-52
2022/01/29 11:40:35;;;;;;;2.78;2.58;;;5.80;99.90;;;;;;5040076;28;20021;-44
2022/01/29 11:43:14;;;;;;;2.95;2.50;;;5.80;99.90;;;;;;5049667;28;20030;-44
2022/01/29 11:45:45;;;;;;;3.22;2.47;;;5.80;99.90;;;;;;5052548;28;20025;-42
2022/01/29 11:48:27;;;;;;;2.38;2.17;;;5.80;99.90;;;;;;5037856;28;20112;-45
2022/01/29 11:50:54;;;;;;;2.47;2.28;;;5.70;99.90;;;;;;5045551;28;20360;-47
2022/01/29 11:53:20;;;;;;;3.17;2.60;;;5.70;99.90;;;;;;5053369;28;20040;-46
2022/01/29 11:55:56;;;;;;;3.05;2.42;;;5.70;99.90;;;;;;5052974;28;20055;-49
2022/01/29 11:58:30;;;;;;;3.63;2.67;;;5.70;99.90;;;;;;5053906;28;20025;-42
2022/01/29 12:01:01;;;;;;;2.78;2.53;;;5.70;99.90;;;;;;5053262;28;20079;-43
2022/01/29 12:03:36;;;;;;;2.40;2.20;;;5.70;99.90;;;;;;5038424;28;20489;-45
2022/01/29 12:06:09;;;;;;;3.10;2.88;;;5.70;99.90;;;;;;5035578;28;20021;-45
2022/01/29 12:08:40;;;;;;;4.60;2.47;;;5.70;99.90;;;;;;5041100;28;20028;-49
2022/01/29 12:11:12;;;;;;;2.35;2.10;;;5.70;99.90;;;;;;5033342;28;20022;-45
2022/01/29 12:13:40;;;;;;;2.72;2.17;;;5.70;99.90;;;;;;5031744;28;20025;-45
2022/01/29 12:16:08;;;;;;;2.70;2.40;;;5.70;99.90;;;;;;5039678;28;20060;-46
2022/01/29 12:18:35;;;;;;;2.10;2.00;;;5.70;99.90;;;;;;5039950;28;20022;-42
2022/01/29 12:21:03;;;;;;;2.30;2.10;;;5.70;99.90;;;;;;5033193;28;20028;-51
2022/01/29 12:23:29;;;;;;;2.30;2.10;;;5.60;99.90;;;;;;5032118;28;20446;-45
2022/01/29 12:25:59;;;;;;;2.20;2.10;;;5.60;99.90;;;;;;5032862;28;20080;-45
2022/01/29 12:28:26;;;;;;;2.17;2.03;;;5.70;99.90;;;;;;5031772;28;20393;-45
2022/01/29 12:30:52;;;;;;;2.15;2.00;;;5.70;99.90;;;;;;5032923;28;20040;-52
2022/01/29 12:33:24;;;;;;;2.55;2.20;;;5.70;99.90;;;;;;5032934;28;20052;-50
2022/01/29 12:35:53;;;;;;;2.40;2.20;;;5.70;99.90;;;;;;5034204;28;20064;-45
2022/01/29 12:38:32;;;;;;;2.70;2.50;;;5.70;99.90;;;;;;5038268;28;20031;-43
2022/01/29 12:41:03;;;;;;;2.85;2.60;;;5.80;99.90;;;;;;5052602;28;20021;-45
2022/01/29 12:43:38;;;;;;;2.72;2.53;;;5.80;99.90;;;;;;5052446;28;20021;-45
2022/01/29 12:46:13;;;;;;;2.87;2.27;;;5.80;99.90;;;;;;5052683;28;20024;-44
2022/01/29 12:48:39;;;;;;;2.63;2.42;;;5.80;99.90;;;;;;5051357;28;20449;-47
2022/01/29 12:51:06;;;;;;;2.35;2.17;;;5.80;99.90;;;;;;5051127;28;20116;-45
2022/01/29 12:53:33;;;;;;;2.58;2.30;;;5.80;99.90;;;;;;5052013;28;20031;-46
2022/01/29 12:56:04;;;;;;;3.47;1.98;;;5.80;99.90;;;;;;5073070;23;20082;-46
2022/01/29 12:58:33;;;;;;;2.90;2.10;;;5.80;99.90;;;;;;5011721;28;20037;-49